Blue Waters — CZ4012 — position and weather

sailwx.info

Track history (hours):
 
Tides and Currents Weather Stations Pressure Air Temp Water Temp Dewpoint Dewpoint Depression Visibility Wind Speed Wind Dir Waves Ship Positions

Blue Waters

Last reported at 2018-Feb-22 13:00 UTC. Time now 2018-Feb-22 13:08 UTC.
Position N 48°54' W 125°39'.

; draft 3 m.

Type: Fishing. MMSI: 316003703.

Date/timePositionNaut miles runAvg speedWind from/ knotsBaromVisibWave heightAir tempDewpointWater temp
2018-Feb-22 13:00N 48°54' W 125°39'4 8.6
2018-Feb-22 12:30N 48°55' W 125°33'2 3.5
2018-Feb-22 12:00N 48°56' W 125°33'0 0.0
2018-Feb-22 11:30N 48°56' W 125°33'0 0.0
2018-Feb-22 11:00N 48°56' W 125°33'0 0.0
2018-Feb-22 10:30N 48°56' W 125°33'0 0.0
2018-Feb-22 10:00N 48°56' W 125°33'0 0.0
2018-Feb-22 09:30N 48°56' W 125°33'0 0.0
2018-Feb-22 09:00N 48°56' W 125°33'0 0.0
2018-Feb-22 08:30N 48°56' W 125°33'0 0.0
2018-Feb-22 08:00N 48°56' W 125°33'0 0.0
2018-Feb-22 07:30N 48°56' W 125°33'0 0.0
2018-Feb-22 07:00N 48°56' W 125°33'0 0.0
2018-Feb-22 06:30N 48°56' W 125°33'0 0.0
2018-Feb-22 06:00N 48°56' W 125°33'0 0.0
2018-Feb-22 05:30N 48°56' W 125°33'0 0.0
2018-Feb-22 05:00N 48°56' W 125°33'0 0.0
2018-Feb-22 04:30N 48°56' W 125°33'0 0.0
2018-Feb-22 04:00N 48°56' W 125°33'0 0.0
2018-Feb-22 03:30N 48°56' W 125°33'0 0.0
2018-Feb-22 03:00N 48°56' W 125°33'0 0.0
2018-Feb-22 02:30N 48°56' W 125°33'0 0.0
2018-Feb-22 02:00N 48°56' W 125°33'0 0.0
2018-Feb-22 01:30N 48°56' W 125°33'0 0.0
2018-Feb-22 01:00N 48°56' W 125°33'0 0.0
2018-Feb-22 00:30N 48°56' W 125°33'0 0.0
2018-Feb-22 00:00N 48°56' W 125°33'0 0.0
2018-Feb-21 23:30N 48°56' W 125°33'0 0.0
2018-Feb-21 23:00N 48°56' W 125°33'0 0.0
2018-Feb-21 22:30N 48°56' W 125°33'0 0.0
2018-Feb-21 22:00N 48°56' W 125°33'0 0.0
2018-Feb-21 21:30N 48°56' W 125°33'0 0.4
2018-Feb-21 21:01N 48°56' W 125°32'0 0.2
2018-Feb-21 20:30N 48°56' W 125°32'0 0.3
2018-Feb-21 20:01N 48°56' W 125°32'0 0.0
2018-Feb-21 19:30N 48°56' W 125°32'0 0.0
2018-Feb-21 19:00N 48°56' W 125°32'0 0.0
2018-Feb-21 18:30N 48°56' W 125°32'0 0.0
2018-Feb-21 18:00N 48°56' W 125°32'0 0.0
2018-Feb-21 17:30N 48°56' W 125°32'0 0.0
2018-Feb-21 17:00N 48°56' W 125°32'0 0.0
2018-Feb-21 16:30N 48°56' W 125°32'0 0.0
2018-Feb-21 16:00N 48°56' W 125°32'0 0.0
2018-Feb-21 15:30N 48°56' W 125°32'0 0.0
2018-Feb-21 15:00N 48°56' W 125°32'0 0.0
2018-Feb-21 14:30N 48°56' W 125°32'0 0.0
2018-Feb-21 14:00N 48°56' W 125°32'0 0.0
2018-Feb-21 13:30N 48°56' W 125°32'0 0.0
2018-Feb-21 13:00N 48°56' W 125°32'0 0.0
2018-Feb-21 12:30N 48°56' W 125°32'0 0.0
2018-Feb-21 12:00N 48°56' W 125°32'0 0.0
2018-Feb-21 11:30N 48°56' W 125°32'0 0.0
2018-Feb-21 11:00N 48°56' W 125°32'0 0.0
2018-Feb-21 10:30N 48°56' W 125°32'0 0.0
2018-Feb-21 10:00N 48°56' W 125°32'0 0.0
2018-Feb-21 09:30N 48°56' W 125°32'0 0.0
2018-Feb-21 09:00N 48°56' W 125°32'0 0.0
2018-Feb-21 08:30N 48°56' W 125°32'0 0.0
2018-Feb-21 08:00N 48°56' W 125°32'0 0.0
2018-Feb-21 07:30N 48°56' W 125°32'2 4.2
2018-Feb-21 07:00N 48°55' W 125°30'3 6.0
2018-Feb-21 06:30N 48°53' W 125°33'4 8.0
2018-Feb-21 06:00N 48°50' W 125°38'4 7.9
2018-Feb-21 05:30N 48°48' W 125°44'4 7.7
2018-Feb-21 05:00N 48°46' W 125°49'4 7.2
2018-Feb-21 04:30N 48°44' W 125°53'4 7.5
2018-Feb-21 04:00N 48°42' W 125°58'4 7.2
2018-Feb-21 03:30N 48°40' W 126°02'4 7.1
2018-Feb-21 02:53N 48°37' W 126°07'1 2.7
2018-Feb-21 02:27N 48°37' W 126°09'0 0.7
2018-Feb-21 01:56N 48°37' W 126°09'1 1.8
2018-Feb-21 01:30N 48°36' W 126°09'1 1.1
2018-Feb-21 00:55N 48°37' W 126°09'0 0.2
2018-Feb-21 00:29N 48°37' W 126°09'0 0.9
2018-Feb-21 00:00N 48°37' W 126°08'2 4.9
2018-Feb-20 23:30N 48°34' W 126°08'4 8.1
2018-Feb-20 23:00N 48°38' W 126°10'3 6.0
2018-Feb-20 22:30N 48°40' W 126°13'4 8.0
2018-Feb-20 22:00N 48°44' W 126°14'4 8.6
2018-Feb-20 21:30N 48°46' W 126°08'4 8.9
2018-Feb-20 21:00N 48°47' W 126°02'4 8.9
2018-Feb-20 20:30N 48°49' W 125°56'4 8.8
2018-Feb-20 20:00N 48°50' W 125°49'5 9.0
2018-Feb-20 19:30N 48°52' W 125°43'4 8.9
2018-Feb-20 19:00N 48°54' W 125°37'4 8.2
2018-Feb-20 18:30N 48°56' W 125°31'2 3.9
2018-Feb-20 18:00N 48°57' W 125°33'0 0.1
2018-Feb-20 17:30N 48°57' W 125°33'0 0.0
2018-Feb-20 17:00N 48°57' W 125°33'2 4.8
2018-Feb-20 16:30N 48°55' W 125°31'4 8.3
2018-Feb-20 16:00N 48°54' W 125°37'4 8.6
2018-Feb-20 15:30N 48°53' W 125°44'4 8.5
2018-Feb-20 15:00N 48°53' W 125°50'4 8.4
2018-Feb-20 14:30N 48°53' W 125°57'4 7.9
2018-Feb-20 14:00N 48°52' W 126°03'4 7.9
2018-Feb-20 13:30N 48°52' W 126°09'5 8.3
2018-Feb-20 12:57N 48°51' W 126°15'5 8.5
2018-Feb-20 12:25N 48°51' W 126°22'5 0.7
2018-Feb-20 05:25N 48°46' W 126°24'1 2.3
2018-Feb-20 04:48N 48°46' W 126°22'1 3.7
2018-Feb-20 04:28N 48°45' W 126°20'3 6.8
2018-Feb-20 03:59N 48°43' W 126°16'3 5.7
2018-Feb-20 03:30N 48°41' W 126°14'1 2.0
2018-Feb-20 03:00N 48°41' W 126°12'1 2.2
2018-Feb-20 02:30N 48°40' W 126°11'2 3.0
2018-Feb-20 02:00N 48°39' W 126°10'1 3.0
2018-Feb-20 01:30N 48°37' W 126°09'2 3.0
2018-Feb-20 00:57N 48°36' W 126°09'1 3.3
2018-Feb-20 00:30N 48°34' W 126°07'1 1.9
2018-Feb-20 00:00N 48°35' W 126°08'2 3.0
2018-Feb-19 23:29N 48°37' W 126°09'1 3.1
2018-Feb-19 23:00N 48°38' W 126°09'2 3.0
2018-Feb-19 22:28N 48°40' W 126°11'2 3.3
2018-Feb-19 22:00N 48°41' W 126°12'1 1.2
2018-Feb-19 21:30N 48°40' W 126°12'1 2.9
2018-Feb-19 21:00N 48°39' W 126°10'1 2.9
2018-Feb-19 20:29N 48°38' W 126°09'1 2.9
2018-Feb-19 19:59N 48°36' W 126°09'1 3.0
2018-Feb-19 19:30N 48°35' W 126°08'0 0.5
2018-Feb-19 19:00N 48°35' W 126°08'2 3.1
2018-Feb-19 18:30N 48°36' W 126°09'2 3.1
2018-Feb-19 17:59N 48°38' W 126°09'1 3.1
2018-Feb-19 17:30N 48°39' W 126°10'2 3.7
2018-Feb-19 17:00N 48°41' W 126°12'1 2.2
2018-Feb-19 16:27N 48°40' W 126°11'1 2.9
2018-Feb-19 15:58N 48°38' W 126°10'1 3.0
2018-Feb-19 15:30N 48°37' W 126°09'1 2.9
2018-Feb-19 15:00N 48°36' W 126°09'1 2.8
2018-Feb-19 14:30N 48°34' W 126°08'0 0.6
2018-Feb-19 14:00N 48°35' W 126°08'0 0.6
2018-Feb-19 13:24N 48°35' W 126°08'0 0.3
2018-Feb-19 13:00N 48°35' W 126°08'3 6.1
2018-Feb-19 12:30N 48°37' W 126°04'4 8.2
2018-Feb-19 12:00N 48°40' W 125°60'4 8.0
2018-Feb-19 11:30N 48°42' W 125°55'4 8.0
2018-Feb-19 11:00N 48°44' W 125°49'4 8.0
2018-Feb-19 10:30N 48°46' W 125°44'4 7.9
2018-Feb-19 10:00N 48°48' W 125°39'4 8.2
2018-Feb-19 09:30N 48°51' W 125°35'4 8.1
2018-Feb-19 09:01N 48°54' W 125°30'3 6.0
2018-Feb-19 08:30N 48°56' W 125°32'1 1.3
2018-Feb-19 08:00N 48°57' W 125°33'0 0.0
2018-Feb-19 07:30N 48°57' W 125°33'0 0.0
2018-Feb-19 07:00N 48°57' W 125°33'0 0.0
2018-Feb-19 06:30N 48°57' W 125°33'0 0.0
2018-Feb-19 06:00N 48°57' W 125°33'0 0.0
2018-Feb-19 05:30N 48°57' W 125°33'0 0.0
2018-Feb-19 05:00N 48°57' W 125°33'0 0.0
2018-Feb-19 04:30N 48°57' W 125°33'0 0.0
2018-Feb-19 04:00N 48°57' W 125°33'0 0.0
2018-Feb-19 03:30N 48°57' W 125°33'0 0.0
2018-Feb-19 03:00N 48°57' W 125°33'0 0.0
2018-Feb-19 02:30N 48°57' W 125°33'0 0.4
2018-Feb-19 02:00N 48°57' W 125°32'0 0.9
2018-Feb-19 01:30N 48°57' W 125°33'0 0.0
2018-Feb-19 01:00N 48°57' W 125°33'0 0.0
2018-Feb-19 00:30N 48°57' W 125°33'0 0.0
2018-Feb-19 00:00N 48°57' W 125°33'0 0.0
2018-Feb-18 23:30N 48°57' W 125°33'0 0.0
2018-Feb-18 23:00N 48°57' W 125°33'0 0.0
2018-Feb-18 22:30N 48°57' W 125°33'0 0.0
2018-Feb-18 22:00N 48°57' W 125°33'0 0.0
2018-Feb-18 21:30N 48°57' W 125°33'0 0.0
2018-Feb-18 21:00N 48°57' W 125°33'0 0.0
2018-Feb-18 20:30N 48°57' W 125°33'0 0.0
2018-Feb-18 20:00N 48°57' W 125°33'0 0.0
2018-Feb-18 19:30N 48°57' W 125°33'0 0.0
2018-Feb-18 19:00N 48°57' W 125°33'0 0.0
2018-Feb-18 18:30N 48°57' W 125°33'0 0.0
2018-Feb-18 18:00N 48°57' W 125°33'0 0.0
2018-Feb-18 17:30N 48°57' W 125°33'0 0.0
2018-Feb-18 17:00N 48°57' W 125°33'0 0.0
2018-Feb-18 16:30N 48°57' W 125°33'0 0.0
2018-Feb-18 16:00N 48°57' W 125°33'0 0.0
2018-Feb-18 15:30N 48°57' W 125°33'0 0.0
2018-Feb-18 15:00N 48°57' W 125°33'0 0.0
2018-Feb-18 14:30N 48°57' W 125°33'0 0.0
2018-Feb-18 14:00N 48°57' W 125°33'0 0.0
2018-Feb-18 13:30N 48°57' W 125°33'0 0.0
2018-Feb-18 13:00N 48°57' W 125°33'0 0.0
2018-Feb-18 12:30N 48°57' W 125°33'0 0.0
2018-Feb-18 12:00N 48°57' W 125°33'0 0.0
2018-Feb-18 11:30N 48°57' W 125°33'0 0.0
2018-Feb-18 11:00N 48°57' W 125°33'0 0.0
2018-Feb-18 10:30N 48°57' W 125°33'0 0.0
2018-Feb-18 10:00N 48°57' W 125°33'0 0.0
2018-Feb-18 09:30N 48°57' W 125°33'0 0.0
2018-Feb-18 09:00N 48°57' W 125°33'0 0.0
2018-Feb-18 08:30N 48°57' W 125°33'0 0.0
2018-Feb-18 08:00N 48°57' W 125°33'0 0.0
2018-Feb-18 07:30N 48°57' W 125°33'0 0.0
2018-Feb-18 07:00N 48°57' W 125°33'0 0.0
2018-Feb-18 06:30N 48°57' W 125°33'0 0.0
2018-Feb-18 06:00N 48°57' W 125°33'0 0.0
2018-Feb-18 05:30N 48°57' W 125°33'0 0.0
2018-Feb-18 05:00N 48°57' W 125°33'0 0.0
2018-Feb-18 04:30N 48°57' W 125°33'0 0.0
2018-Feb-18 04:00N 48°57' W 125°33'0 0.0
2018-Feb-18 03:30N 48°57' W 125°33'0 0.0
2018-Feb-18 03:00N 48°57' W 125°33'0 0.0
2018-Feb-18 02:30N 48°57' W 125°33'0 0.0
2018-Feb-18 02:00N 48°57' W 125°33'0 0.0
2018-Feb-18 01:30N 48°57' W 125°33'0 0.0
2018-Feb-18 01:00N 48°57' W 125°33'0 0.0
2018-Feb-18 00:30N 48°57' W 125°33'0 0.0
2018-Feb-18 00:00N 48°57' W 125°33'0 0.0
2018-Feb-17 23:30N 48°57' W 125°33'0 0.0
2018-Feb-17 23:00N 48°57' W 125°33'0 0.0
2018-Feb-17 22:30N 48°57' W 125°33'0 0.0
2018-Feb-17 22:00N 48°57' W 125°33'0 0.0
2018-Feb-17 21:30N 48°57' W 125°33'0 0.0
2018-Feb-17 21:00N 48°57' W 125°33'0 0.0
2018-Feb-17 20:30N 48°57' W 125°33'0 0.0
2018-Feb-17 20:00N 48°57' W 125°33'0 0.0
2018-Feb-17 19:30N 48°57' W 125°33'0 0.0
2018-Feb-17 19:00N 48°57' W 125°33'0 0.0
2018-Feb-17 18:30N 48°57' W 125°33'0 0.0
2018-Feb-17 18:00N 48°57' W 125°33'0 0.0
2018-Feb-17 17:30N 48°57' W 125°33'0 0.0
2018-Feb-17 17:00N 48°57' W 125°33'0 0.0
2018-Feb-17 16:30N 48°57' W 125°33'0 0.0
2018-Feb-17 16:00N 48°57' W 125°33'0 0.0
2018-Feb-17 15:30N 48°57' W 125°33'0 0.0
2018-Feb-17 15:00N 48°57' W 125°33'0 0.0
2018-Feb-17 14:30N 48°57' W 125°33'0 0.0
2018-Feb-17 14:00N 48°57' W 125°33'0 0.0
2018-Feb-17 13:30N 48°57' W 125°33'0 0.0
2018-Feb-17 13:00N 48°57' W 125°33'0 0.0
2018-Feb-17 12:30N 48°57' W 125°33'0 0.0
2018-Feb-17 12:00N 48°57' W 125°33'0 0.0
2018-Feb-17 11:30N 48°57' W 125°33'0 0.0
2018-Feb-17 11:00N 48°57' W 125°33'0 0.0
2018-Feb-17 10:30N 48°57' W 125°33'0 0.0
2018-Feb-17 10:00N 48°57' W 125°33'0 0.0
2018-Feb-17 09:30N 48°57' W 125°33'0 0.0
2018-Feb-17 09:00N 48°57' W 125°33'0 0.0
2018-Feb-17 08:30N 48°57' W 125°33'0 0.0
2018-Feb-17 08:00N 48°57' W 125°33'0 0.0
2018-Feb-17 07:30N 48°57' W 125°33'0 0.0
2018-Feb-17 07:00N 48°57' W 125°33'0 0.0
2018-Feb-17 06:30N 48°57' W 125°33'0 0.0
2018-Feb-17 06:00N 48°57' W 125°33'0 0.0
2018-Feb-17 05:30N 48°57' W 125°33'0 0.0
2018-Feb-17 05:00N 48°57' W 125°33'0 0.0
2018-Feb-17 04:30N 48°57' W 125°33'0 0.0
2018-Feb-17 04:00N 48°57' W 125°33'0 0.0
2018-Feb-17 03:30N 48°57' W 125°33'0 0.0
2018-Feb-17 03:00N 48°57' W 125°33'0 0.0
2018-Feb-17 02:30N 48°57' W 125°33'0 0.0
2018-Feb-17 02:00N 48°57' W 125°33'0 0.0
2018-Feb-17 01:30N 48°57' W 125°33'0 0.0
2018-Feb-17 01:00N 48°57' W 125°33'0 0.0
2018-Feb-17 00:30N 48°57' W 125°33'0 0.0
2018-Feb-17 00:00N 48°57' W 125°33'0 0.0
2018-Feb-16 23:30N 48°57' W 125°33'0 0.0
2018-Feb-16 23:00N 48°57' W 125°33'0 0.0
2018-Feb-16 22:30N 48°57' W 125°33'0 0.0
2018-Feb-16 22:00N 48°57' W 125°33'0 0.0
2018-Feb-16 21:30N 48°57' W 125°33'0 0.0
2018-Feb-16 21:00N 48°57' W 125°33'0 0.0
2018-Feb-16 20:30N 48°57' W 125°33'0 0.0
2018-Feb-16 20:00N 48°57' W 125°33'0 0.0
2018-Feb-16 19:30N 48°57' W 125°33'0 0.0
2018-Feb-16 19:00N 48°57' W 125°33'0 0.0
2018-Feb-16 18:30N 48°57' W 125°33'0 0.0
2018-Feb-16 18:00N 48°57' W 125°33'0 0.0
2018-Feb-16 17:30N 48°57' W 125°33'0 0.0
2018-Feb-16 17:00N 48°57' W 125°33'0 0.0
2018-Feb-16 16:30N 48°57' W 125°33'0 0.0
2018-Feb-16 16:00N 48°57' W 125°33'0 0.0
2018-Feb-16 15:30N 48°57' W 125°33'0 0.0
2018-Feb-16 15:00N 48°57' W 125°33'0 0.0
2018-Feb-16 14:30N 48°57' W 125°33'0 0.0
2018-Feb-16 14:00N 48°57' W 125°33'0 0.0
2018-Feb-16 13:30N 48°57' W 125°33'0 0.0
2018-Feb-16 13:00N 48°57' W 125°33'0 0.0
2018-Feb-16 12:30N 48°57' W 125°33'0 0.0
2018-Feb-16 12:00N 48°57' W 125°33'0 0.0
2018-Feb-16 11:30N 48°57' W 125°33'0 0.0
2018-Feb-16 11:00N 48°57' W 125°33'0 0.0
2018-Feb-16 10:30N 48°57' W 125°33'0 0.0
2018-Feb-16 10:00N 48°57' W 125°33'0 0.0
2018-Feb-16 09:30N 48°57' W 125°33'0 0.0
2018-Feb-16 09:00N 48°57' W 125°33'0 0.0
2018-Feb-16 08:30N 48°57' W 125°33'0 0.0
2018-Feb-16 08:00N 48°57' W 125°33'0 0.0
2018-Feb-16 07:30N 48°57' W 125°33'0 0.0
2018-Feb-16 07:00N 48°57' W 125°33'0 0.0
2018-Feb-16 06:30N 48°57' W 125°33'0 0.0
2018-Feb-16 06:00N 48°57' W 125°33'0 0.0
2018-Feb-16 05:30N 48°57' W 125°33'0 0.0
2018-Feb-16 05:00N 48°57' W 125°33'0 0.0
2018-Feb-16 04:30N 48°57' W 125°33'0 0.0
2018-Feb-16 04:00N 48°57' W 125°33'0 0.0
2018-Feb-16 03:30N 48°57' W 125°33'0 0.0
2018-Feb-16 03:00N 48°57' W 125°33'0 0.0
2018-Feb-16 02:30N 48°57' W 125°33'0 0.0
2018-Feb-16 02:00N 48°57' W 125°33'0 0.0
2018-Feb-16 01:30N 48°57' W 125°33'0 0.0
2018-Feb-16 01:00N 48°57' W 125°33'0 0.0
2018-Feb-16 00:30N 48°57' W 125°33'0 0.0
2018-Feb-16 00:00N 48°57' W 125°33'0 0.0
2018-Feb-15 23:30N 48°57' W 125°33'0 0.0
2018-Feb-15 23:00N 48°57' W 125°33'0 0.0
2018-Feb-15 22:30N 48°57' W 125°33'0 0.0
2018-Feb-15 22:00N 48°57' W 125°33'0 0.0
2018-Feb-15 21:30N 48°57' W 125°33'0 0.0
2018-Feb-15 21:00N 48°57' W 125°33'0 0.0
2018-Feb-15 20:30N 48°57' W 125°33'0 0.0
2018-Feb-15 20:00N 48°57' W 125°33'0 0.0
2018-Feb-15 19:30N 48°57' W 125°33'0 0.0
2018-Feb-15 19:00N 48°57' W 125°33'0 0.0
2018-Feb-15 18:30N 48°57' W 125°33'0 0.0
2018-Feb-15 18:00N 48°57' W 125°33'1 1.6
2018-Feb-15 17:30N 48°56' W 125°32'0 0.0
2018-Feb-15 17:00N 48°56' W 125°32'0 0.0
2018-Feb-15 16:30N 48°56' W 125°32'0 0.0
2018-Feb-15 16:00N 48°56' W 125°32'0 0.0
2018-Feb-15 15:30N 48°56' W 125°32'0 0.0
2018-Feb-15 15:00N 48°56' W 125°32'0 0.0
2018-Feb-15 14:30N 48°56' W 125°32'0 0.0
2018-Feb-15 14:00N 48°56' W 125°32'0 0.0
2018-Feb-15 13:30N 48°56' W 125°32'0 0.0
2018-Feb-15 13:00N 48°56' W 125°32'0 0.0
2018-Feb-15 12:30N 48°56' W 125°32'0 0.0
2018-Feb-15 12:00N 48°56' W 125°32'0 0.0
2018-Feb-15 11:30N 48°56' W 125°32'0 0.0
2018-Feb-15 11:00N 48°56' W 125°32'0 0.0
2018-Feb-15 10:30N 48°56' W 125°32'0 0.0
2018-Feb-15 10:00N 48°56' W 125°32'0 0.0
2018-Feb-15 09:30N 48°56' W 125°32'0 0.0
2018-Feb-15 09:00N 48°56' W 125°32'0 0.0
2018-Feb-15 08:30N 48°56' W 125°32'0 0.0
2018-Feb-15 08:00N 48°56' W 125°32'0 0.0
2018-Feb-15 07:30N 48°56' W 125°32'0 0.0
2018-Feb-15 07:00N 48°56' W 125°32'0 0.0
2018-Feb-15 06:30N 48°56' W 125°32'0 0.0
2018-Feb-15 06:00N 48°56' W 125°32'0 0.0
2018-Feb-15 05:30N 48°56' W 125°32'0 0.0
2018-Feb-15 05:00N 48°56' W 125°32'0 0.0
2018-Feb-15 04:30N 48°56' W 125°32'0 0.0
2018-Feb-15 03:59N 48°56' W 125°32'0 0.0
2018-Feb-15 03:30N 48°56' W 125°32'0 0.0
2018-Feb-15 03:00N 48°56' W 125°32'0 0.0
2018-Feb-15 02:30N 48°56' W 125°32'0 0.0
2018-Feb-15 02:00N 48°56' W 125°32'0 0.0
2018-Feb-15 01:30N 48°56' W 125°32'0 0.2
2018-Feb-15 01:00N 48°56' W 125°32'0 0.0
2018-Feb-15 00:30N 48°56' W 125°32'0 0.0
2018-Feb-15 00:00N 48°56' W 125°32'0 0.0
2018-Feb-14 23:30N 48°56' W 125°32'0 0.0
2018-Feb-14 23:00N 48°56' W 125°32'0 0.0
2018-Feb-14 22:30N 48°56' W 125°32'0 0.0
2018-Feb-14 22:00N 48°56' W 125°32'0 0.0
2018-Feb-14 21:30N 48°56' W 125°32'0 0.0
2018-Feb-14 21:00N 48°56' W 125°32'0 0.0
2018-Feb-14 20:30N 48°56' W 125°32'0 0.0
2018-Feb-14 20:00N 48°56' W 125°32'0 0.0
2018-Feb-14 19:30N 48°56' W 125°32'0 0.0
2018-Feb-14 19:00N 48°56' W 125°32'0 0.0
2018-Feb-14 18:30N 48°56' W 125°32'0 0.0
2018-Feb-14 18:00N 48°56' W 125°32'0 0.0
2018-Feb-14 17:30N 48°56' W 125°32'0 0.0
2018-Feb-14 17:00N 48°56' W 125°32'0 0.0
2018-Feb-14 16:30N 48°56' W 125°32'0 0.0
2018-Feb-14 16:00N 48°56' W 125°32'0 0.0
2018-Feb-14 15:30N 48°56' W 125°32'0 0.0
2018-Feb-14 15:00N 48°56' W 125°32'0 0.0
2018-Feb-14 14:30N 48°56' W 125°32'0 0.0
2018-Feb-14 14:00N 48°56' W 125°32'0 0.2
2018-Feb-14 13:30N 48°56' W 125°32'2 4.4
2018-Feb-14 13:00N 48°55' W 125°35'4 8.6
2018-Feb-14 12:30N 48°57' W 125°40'4 8.2
2018-Feb-14 12:00N 48°59' W 125°46'4 8.6
2018-Feb-14 11:30N 49°01' W 125°52'4 8.7
2018-Feb-14 11:00N 49°04' W 125°57'4 8.8
2018-Feb-14 10:30N 49°06' W 126°03'4 8.5
2018-Feb-14 10:00N 49°08' W 126°09'4 8.3
2018-Feb-14 09:30N 49°10' W 126°14'4 8.0
2018-Feb-14 08:57N 49°12' W 126°20'  
Track history (hours):
 
Tides and Currents Weather Stations Pressure Air Temp Water Temp Dewpoint Dewpoint Depression Visibility Wind Speed Wind Dir Waves Ship Positions

Blue Waters

Last reported at 2018-Feb-22 13:00 UTC. Time now 2018-Feb-22 13:08 UTC.
Position N 48°54' W 125°39'.

; draft 3 m.

Type: Fishing. MMSI: 316003703.

Date/timePositionNaut miles runAvg speedWind from/ knotsBaromVisibWave heightAir tempDewpointWater temp
2018-Feb-22 13:00N 48°54' W 125°39'4 8.6
2018-Feb-22 12:30N 48°55' W 125°33'2 3.5
2018-Feb-22 12:00N 48°56' W 125°33'0 0.0
2018-Feb-22 11:30N 48°56' W 125°33'0 0.0
2018-Feb-22 11:00N 48°56' W 125°33'0 0.0
2018-Feb-22 10:30N 48°56' W 125°33'0 0.0
2018-Feb-22 10:00N 48°56' W 125°33'0 0.0
2018-Feb-22 09:30N 48°56' W 125°33'0 0.0
2018-Feb-22 09:00N 48°56' W 125°33'0 0.0
2018-Feb-22 08:30N 48°56' W 125°33'0 0.0
2018-Feb-22 08:00N 48°56' W 125°33'0 0.0
2018-Feb-22 07:30N 48°56' W 125°33'0 0.0
2018-Feb-22 07:00N 48°56' W 125°33'0 0.0
2018-Feb-22 06:30N 48°56' W 125°33'0 0.0
2018-Feb-22 06:00N 48°56' W 125°33'0 0.0
2018-Feb-22 05:30N 48°56' W 125°33'0 0.0
2018-Feb-22 05:00N 48°56' W 125°33'0 0.0
2018-Feb-22 04:30N 48°56' W 125°33'0 0.0
2018-Feb-22 04:00N 48°56' W 125°33'0 0.0
2018-Feb-22 03:30N 48°56' W 125°33'0 0.0
2018-Feb-22 03:00N 48°56' W 125°33'0 0.0
2018-Feb-22 02:30N 48°56' W 125°33'0 0.0
2018-Feb-22 02:00N 48°56' W 125°33'0 0.0
2018-Feb-22 01:30N 48°56' W 125°33'0 0.0
2018-Feb-22 01:00N 48°56' W 125°33'0 0.0
2018-Feb-22 00:30N 48°56' W 125°33'0 0.0
2018-Feb-22 00:00N 48°56' W 125°33'0 0.0
2018-Feb-21 23:30N 48°56' W 125°33'0 0.0
2018-Feb-21 23:00N 48°56' W 125°33'0 0.0
2018-Feb-21 22:30N 48°56' W 125°33'0 0.0
2018-Feb-21 22:00N 48°56' W 125°33'0 0.0
2018-Feb-21 21:30N 48°56' W 125°33'0 0.4
2018-Feb-21 21:01N 48°56' W 125°32'0 0.2
2018-Feb-21 20:30N 48°56' W 125°32'0 0.3
2018-Feb-21 20:01N 48°56' W 125°32'0 0.0
2018-Feb-21 19:30N 48°56' W 125°32'0 0.0
2018-Feb-21 19:00N 48°56' W 125°32'0 0.0
2018-Feb-21 18:30N 48°56' W 125°32'0 0.0
2018-Feb-21 18:00N 48°56' W 125°32'0 0.0
2018-Feb-21 17:30N 48°56' W 125°32'0 0.0
2018-Feb-21 17:00N 48°56' W 125°32'0 0.0
2018-Feb-21 16:30N 48°56' W 125°32'0 0.0
2018-Feb-21 16:00N 48°56' W 125°32'0 0.0
2018-Feb-21 15:30N 48°56' W 125°32'0 0.0
2018-Feb-21 15:00N 48°56' W 125°32'0 0.0
2018-Feb-21 14:30N 48°56' W 125°32'0 0.0
2018-Feb-21 14:00N 48°56' W 125°32'0 0.0
2018-Feb-21 13:30N 48°56' W 125°32'0 0.0
2018-Feb-21 13:00N 48°56' W 125°32'0 0.0
2018-Feb-21 12:30N 48°56' W 125°32'0 0.0
2018-Feb-21 12:00N 48°56' W 125°32'0 0.0
2018-Feb-21 11:30N 48°56' W 125°32'0 0.0
2018-Feb-21 11:00N 48°56' W 125°32'0 0.0
2018-Feb-21 10:30N 48°56' W 125°32'0 0.0
2018-Feb-21 10:00N 48°56' W 125°32'0 0.0
2018-Feb-21 09:30N 48°56' W 125°32'0 0.0
2018-Feb-21 09:00N 48°56' W 125°32'0 0.0
2018-Feb-21 08:30N 48°56' W 125°32'0 0.0
2018-Feb-21 08:00N 48°56' W 125°32'0 0.0
2018-Feb-21 07:30N 48°56' W 125°32'2 4.2
2018-Feb-21 07:00N 48°55' W 125°30'3 6.0
2018-Feb-21 06:30N 48°53' W 125°33'4 8.0
2018-Feb-21 06:00N 48°50' W 125°38'4 7.9
2018-Feb-21 05:30N 48°48' W 125°44'4 7.7
2018-Feb-21 05:00N 48°46' W 125°49'4 7.2
2018-Feb-21 04:30N 48°44' W 125°53'4 7.5
2018-Feb-21 04:00N 48°42' W 125°58'4 7.2
2018-Feb-21 03:30N 48°40' W 126°02'4 7.1
2018-Feb-21 02:53N 48°37' W 126°07'1 2.7
2018-Feb-21 02:27N 48°37' W 126°09'0 0.7
2018-Feb-21 01:56N 48°37' W 126°09'1 1.8
2018-Feb-21 01:30N 48°36' W 126°09'1 1.1
2018-Feb-21 00:55N 48°37' W 126°09'0 0.2
2018-Feb-21 00:29N 48°37' W 126°09'0 0.9
2018-Feb-21 00:00N 48°37' W 126°08'2 4.9
2018-Feb-20 23:30N 48°34' W 126°08'4 8.1
2018-Feb-20 23:00N 48°38' W 126°10'3 6.0
2018-Feb-20 22:30N 48°40' W 126°13'4 8.0
2018-Feb-20 22:00N 48°44' W 126°14'4 8.6
2018-Feb-20 21:30N 48°46' W 126°08'4 8.9
2018-Feb-20 21:00N 48°47' W 126°02'4 8.9
2018-Feb-20 20:30N 48°49' W 125°56'4 8.8
2018-Feb-20 20:00N 48°50' W 125°49'5 9.0
2018-Feb-20 19:30N 48°52' W 125°43'4 8.9
2018-Feb-20 19:00N 48°54' W 125°37'4 8.2
2018-Feb-20 18:30N 48°56' W 125°31'2 3.9
2018-Feb-20 18:00N 48°57' W 125°33'0 0.1
2018-Feb-20 17:30N 48°57' W 125°33'0 0.0
2018-Feb-20 17:00N 48°57' W 125°33'2 4.8
2018-Feb-20 16:30N 48°55' W 125°31'4 8.3
2018-Feb-20 16:00N 48°54' W 125°37'4 8.6
2018-Feb-20 15:30N 48°53' W 125°44'4 8.5
2018-Feb-20 15:00N 48°53' W 125°50'4 8.4
2018-Feb-20 14:30N 48°53' W 125°57'4 7.9
2018-Feb-20 14:00N 48°52' W 126°03'4 7.9
2018-Feb-20 13:30N 48°52' W 126°09'5 8.3
2018-Feb-20 12:57N 48°51' W 126°15'5 8.5
2018-Feb-20 12:25N 48°51' W 126°22'5 0.7
2018-Feb-20 05:25N 48°46' W 126°24'1 2.3
2018-Feb-20 04:48N 48°46' W 126°22'1 3.7
2018-Feb-20 04:28N 48°45' W 126°20'3 6.8
2018-Feb-20 03:59N 48°43' W 126°16'3 5.7
2018-Feb-20 03:30N 48°41' W 126°14'1 2.0
2018-Feb-20 03:00N 48°41' W 126°12'1 2.2
2018-Feb-20 02:30N 48°40' W 126°11'2 3.0
2018-Feb-20 02:00N 48°39' W 126°10'1 3.0
2018-Feb-20 01:30N 48°37' W 126°09'2 3.0
2018-Feb-20 00:57N 48°36' W 126°09'1 3.3
2018-Feb-20 00:30N 48°34' W 126°07'1 1.9
2018-Feb-20 00:00N 48°35' W 126°08'2 3.0
2018-Feb-19 23:29N 48°37' W 126°09'1 3.1
2018-Feb-19 23:00N 48°38' W 126°09'2 3.0
2018-Feb-19 22:28N 48°40' W 126°11'2 3.3
2018-Feb-19 22:00N 48°41' W 126°12'1 1.2
2018-Feb-19 21:30N 48°40' W 126°12'1 2.9
2018-Feb-19 21:00N 48°39' W 126°10'1 2.9
2018-Feb-19 20:29N 48°38' W 126°09'1 2.9
2018-Feb-19 19:59N 48°36' W 126°09'1 3.0
2018-Feb-19 19:30N 48°35' W 126°08'0 0.5
2018-Feb-19 19:00N 48°35' W 126°08'2 3.1
2018-Feb-19 18:30N 48°36' W 126°09'2 3.1
2018-Feb-19 17:59N 48°38' W 126°09'1 3.1
2018-Feb-19 17:30N 48°39' W 126°10'2 3.7
2018-Feb-19 17:00N 48°41' W 126°12'1 2.2
2018-Feb-19 16:27N 48°40' W 126°11'1 2.9
2018-Feb-19 15:58N 48°38' W 126°10'1 3.0
2018-Feb-19 15:30N 48°37' W 126°09'1 2.9
2018-Feb-19 15:00N 48°36' W 126°09'1 2.8
2018-Feb-19 14:30N 48°34' W 126°08'0 0.6
2018-Feb-19 14:00N 48°35' W 126°08'0 0.6
2018-Feb-19 13:24N 48°35' W 126°08'0 0.3
2018-Feb-19 13:00N 48°35' W 126°08'3 6.1
2018-Feb-19 12:30N 48°37' W 126°04'4 8.2
2018-Feb-19 12:00N 48°40' W 125°60'4 8.0
2018-Feb-19 11:30N 48°42' W 125°55'4 8.0
2018-Feb-19 11:00N 48°44' W 125°49'4 8.0
2018-Feb-19 10:30N 48°46' W 125°44'4 7.9
2018-Feb-19 10:00N 48°48' W 125°39'4 8.2
2018-Feb-19 09:30N 48°51' W 125°35'4 8.1
2018-Feb-19 09:01N 48°54' W 125°30'3 6.0
2018-Feb-19 08:30N 48°56' W 125°32'1 1.3
2018-Feb-19 08:00N 48°57' W 125°33'0 0.0
2018-Feb-19 07:30N 48°57' W 125°33'0 0.0
2018-Feb-19 07:00N 48°57' W 125°33'0 0.0
2018-Feb-19 06:30N 48°57' W 125°33'0 0.0
2018-Feb-19 06:00N 48°57' W 125°33'0 0.0
2018-Feb-19 05:30N 48°57' W 125°33'0 0.0
2018-Feb-19 05:00N 48°57' W 125°33'0 0.0
2018-Feb-19 04:30N 48°57' W 125°33'0 0.0
2018-Feb-19 04:00N 48°57' W 125°33'0 0.0
2018-Feb-19 03:30N 48°57' W 125°33'0 0.0
2018-Feb-19 03:00N 48°57' W 125°33'0 0.0
2018-Feb-19 02:30N 48°57' W 125°33'0 0.4
2018-Feb-19 02:00N 48°57' W 125°32'0 0.9
2018-Feb-19 01:30N 48°57' W 125°33'0 0.0
2018-Feb-19 01:00N 48°57' W 125°33'0 0.0
2018-Feb-19 00:30N 48°57' W 125°33'0 0.0
2018-Feb-19 00:00N 48°57' W 125°33'0 0.0
2018-Feb-18 23:30N 48°57' W 125°33'0 0.0
2018-Feb-18 23:00N 48°57' W 125°33'0 0.0
2018-Feb-18 22:30N 48°57' W 125°33'0 0.0
2018-Feb-18 22:00N 48°57' W 125°33'0 0.0
2018-Feb-18 21:30N 48°57' W 125°33'0 0.0
2018-Feb-18 21:00N 48°57' W 125°33'0 0.0
2018-Feb-18 20:30N 48°57' W 125°33'0 0.0
2018-Feb-18 20:00N 48°57' W 125°33'0 0.0
2018-Feb-18 19:30N 48°57' W 125°33'0 0.0
2018-Feb-18 19:00N 48°57' W 125°33'0 0.0
2018-Feb-18 18:30N 48°57' W 125°33'0 0.0
2018-Feb-18 18:00N 48°57' W 125°33'0 0.0
2018-Feb-18 17:30N 48°57' W 125°33'0 0.0
2018-Feb-18 17:00N 48°57' W 125°33'0 0.0
2018-Feb-18 16:30N 48°57' W 125°33'0 0.0
2018-Feb-18 16:00N 48°57' W 125°33'0 0.0
2018-Feb-18 15:30N 48°57' W 125°33'0 0.0
2018-Feb-18 15:00N 48°57' W 125°33'0 0.0
2018-Feb-18 14:30N 48°57' W 125°33'0 0.0
2018-Feb-18 14:00N 48°57' W 125°33'0 0.0
2018-Feb-18 13:30N 48°57' W 125°33'0 0.0
2018-Feb-18 13:00N 48°57' W 125°33'0 0.0
2018-Feb-18 12:30N 48°57' W 125°33'0 0.0
2018-Feb-18 12:00N 48°57' W 125°33'0 0.0
2018-Feb-18 11:30N 48°57' W 125°33'0 0.0
2018-Feb-18 11:00N 48°57' W 125°33'0 0.0
2018-Feb-18 10:30N 48°57' W 125°33'0 0.0
2018-Feb-18 10:00N 48°57' W 125°33'0 0.0
2018-Feb-18 09:30N 48°57' W 125°33'0 0.0
2018-Feb-18 09:00N 48°57' W 125°33'0 0.0
2018-Feb-18 08:30N 48°57' W 125°33'0 0.0
2018-Feb-18 08:00N 48°57' W 125°33'0 0.0
2018-Feb-18 07:30N 48°57' W 125°33'0 0.0
2018-Feb-18 07:00N 48°57' W 125°33'0 0.0
2018-Feb-18 06:30N 48°57' W 125°33'0 0.0
2018-Feb-18 06:00N 48°57' W 125°33'0 0.0
2018-Feb-18 05:30N 48°57' W 125°33'0 0.0
2018-Feb-18 05:00N 48°57' W 125°33'0 0.0
2018-Feb-18 04:30N 48°57' W 125°33'0 0.0
2018-Feb-18 04:00N 48°57' W 125°33'0 0.0
2018-Feb-18 03:30N 48°57' W 125°33'0 0.0
2018-Feb-18 03:00N 48°57' W 125°33'0 0.0
2018-Feb-18 02:30N 48°57' W 125°33'0 0.0
2018-Feb-18 02:00N 48°57' W 125°33'0 0.0
2018-Feb-18 01:30N 48°57' W 125°33'0 0.0
2018-Feb-18 01:00N 48°57' W 125°33'0 0.0
2018-Feb-18 00:30N 48°57' W 125°33'0 0.0
2018-Feb-18 00:00N 48°57' W 125°33'0 0.0
2018-Feb-17 23:30N 48°57' W 125°33'0 0.0
2018-Feb-17 23:00N 48°57' W 125°33'0 0.0
2018-Feb-17 22:30N 48°57' W 125°33'0 0.0
2018-Feb-17 22:00N 48°57' W 125°33'0 0.0
2018-Feb-17 21:30N 48°57' W 125°33'0 0.0
2018-Feb-17 21:00N 48°57' W 125°33'0 0.0
2018-Feb-17 20:30N 48°57' W 125°33'0 0.0
2018-Feb-17 20:00N 48°57' W 125°33'0 0.0
2018-Feb-17 19:30N 48°57' W 125°33'0 0.0
2018-Feb-17 19:00N 48°57' W 125°33'0 0.0
2018-Feb-17 18:30N 48°57' W 125°33'0 0.0
2018-Feb-17 18:00N 48°57' W 125°33'0 0.0
2018-Feb-17 17:30N 48°57' W 125°33'0 0.0
2018-Feb-17 17:00N 48°57' W 125°33'0 0.0
2018-Feb-17 16:30N 48°57' W 125°33'0 0.0
2018-Feb-17 16:00N 48°57' W 125°33'0 0.0
2018-Feb-17 15:30N 48°57' W 125°33'0 0.0
2018-Feb-17 15:00N 48°57' W 125°33'0 0.0
2018-Feb-17 14:30N 48°57' W 125°33'0 0.0
2018-Feb-17 14:00N 48°57' W 125°33'0 0.0
2018-Feb-17 13:30N 48°57' W 125°33'0 0.0
2018-Feb-17 13:00N 48°57' W 125°33'0 0.0
2018-Feb-17 12:30N 48°57' W 125°33'0 0.0
2018-Feb-17 12:00N 48°57' W 125°33'0 0.0
2018-Feb-17 11:30N 48°57' W 125°33'0 0.0
2018-Feb-17 11:00N 48°57' W 125°33'0 0.0
2018-Feb-17 10:30N 48°57' W 125°33'0 0.0
2018-Feb-17 10:00N 48°57' W 125°33'0 0.0
2018-Feb-17 09:30N 48°57' W 125°33'0 0.0
2018-Feb-17 09:00N 48°57' W 125°33'0 0.0
2018-Feb-17 08:30N 48°57' W 125°33'0 0.0
2018-Feb-17 08:00N 48°57' W 125°33'0 0.0
2018-Feb-17 07:30N 48°57' W 125°33'0 0.0
2018-Feb-17 07:00N 48°57' W 125°33'0 0.0
2018-Feb-17 06:30N 48°57' W 125°33'0 0.0
2018-Feb-17 06:00N 48°57' W 125°33'0 0.0
2018-Feb-17 05:30N 48°57' W 125°33'0 0.0
2018-Feb-17 05:00N 48°57' W 125°33'0 0.0
2018-Feb-17 04:30N 48°57' W 125°33'0 0.0
2018-Feb-17 04:00N 48°57' W 125°33'0 0.0
2018-Feb-17 03:30N 48°57' W 125°33'0 0.0
2018-Feb-17 03:00N 48°57' W 125°33'0 0.0
2018-Feb-17 02:30N 48°57' W 125°33'0 0.0
2018-Feb-17 02:00N 48°57' W 125°33'0 0.0
2018-Feb-17 01:30N 48°57' W 125°33'0 0.0
2018-Feb-17 01:00N 48°57' W 125°33'0 0.0
2018-Feb-17 00:30N 48°57' W 125°33'0 0.0
2018-Feb-17 00:00N 48°57' W 125°33'0 0.0
2018-Feb-16 23:30N 48°57' W 125°33'0 0.0
2018-Feb-16 23:00N 48°57' W 125°33'0 0.0
2018-Feb-16 22:30N 48°57' W 125°33'0 0.0
2018-Feb-16 22:00N 48°57' W 125°33'0 0.0
2018-Feb-16 21:30N 48°57' W 125°33'0 0.0
2018-Feb-16 21:00N 48°57' W 125°33'0 0.0
2018-Feb-16 20:30N 48°57' W 125°33'0 0.0
2018-Feb-16 20:00N 48°57' W 125°33'0 0.0
2018-Feb-16 19:30N 48°57' W 125°33'0 0.0
2018-Feb-16 19:00N 48°57' W 125°33'0 0.0
2018-Feb-16 18:30N 48°57' W 125°33'0 0.0
2018-Feb-16 18:00N 48°57' W 125°33'0 0.0
2018-Feb-16 17:30N 48°57' W 125°33'0 0.0
2018-Feb-16 17:00N 48°57' W 125°33'0 0.0
2018-Feb-16 16:30N 48°57' W 125°33'0 0.0
2018-Feb-16 16:00N 48°57' W 125°33'0 0.0
2018-Feb-16 15:30N 48°57' W 125°33'0 0.0
2018-Feb-16 15:00N 48°57' W 125°33'0 0.0
2018-Feb-16 14:30N 48°57' W 125°33'0 0.0
2018-Feb-16 14:00N 48°57' W 125°33'0 0.0
2018-Feb-16 13:30N 48°57' W 125°33'0 0.0
2018-Feb-16 13:00N 48°57' W 125°33'0 0.0
2018-Feb-16 12:30N 48°57' W 125°33'0 0.0
2018-Feb-16 12:00N 48°57' W 125°33'0 0.0
2018-Feb-16 11:30N 48°57' W 125°33'0 0.0
2018-Feb-16 11:00N 48°57' W 125°33'0 0.0
2018-Feb-16 10:30N 48°57' W 125°33'0 0.0
2018-Feb-16 10:00N 48°57' W 125°33'0 0.0
2018-Feb-16 09:30N 48°57' W 125°33'0 0.0
2018-Feb-16 09:00N 48°57' W 125°33'0 0.0
2018-Feb-16 08:30N 48°57' W 125°33'0 0.0
2018-Feb-16 08:00N 48°57' W 125°33'0 0.0
2018-Feb-16 07:30N 48°57' W 125°33'0 0.0
2018-Feb-16 07:00N 48°57' W 125°33'0 0.0
2018-Feb-16 06:30N 48°57' W 125°33'0 0.0
2018-Feb-16 06:00N 48°57' W 125°33'0 0.0
2018-Feb-16 05:30N 48°57' W 125°33'0 0.0
2018-Feb-16 05:00N 48°57' W 125°33'0 0.0
2018-Feb-16 04:30N 48°57' W 125°33'0 0.0
2018-Feb-16 04:00N 48°57' W 125°33'0 0.0
2018-Feb-16 03:30N 48°57' W 125°33'0 0.0
2018-Feb-16 03:00N 48°57' W 125°33'0 0.0
2018-Feb-16 02:30N 48°57' W 125°33'0 0.0
2018-Feb-16 02:00N 48°57' W 125°33'0 0.0
2018-Feb-16 01:30N 48°57' W 125°33'0 0.0
2018-Feb-16 01:00N 48°57' W 125°33'0 0.0
2018-Feb-16 00:30N 48°57' W 125°33'0 0.0
2018-Feb-16 00:00N 48°57' W 125°33'0 0.0
2018-Feb-15 23:30N 48°57' W 125°33'0 0.0
2018-Feb-15 23:00N 48°57' W 125°33'0 0.0
2018-Feb-15 22:30N 48°57' W 125°33'0 0.0
2018-Feb-15 22:00N 48°57' W 125°33'0 0.0
2018-Feb-15 21:30N 48°57' W 125°33'0 0.0
2018-Feb-15 21:00N 48°57' W 125°33'0 0.0
2018-Feb-15 20:30N 48°57' W 125°33'0 0.0
2018-Feb-15 20:00N 48°57' W 125°33'0 0.0
2018-Feb-15 19:30N 48°57' W 125°33'0 0.0
2018-Feb-15 19:00N 48°57' W 125°33'0 0.0
2018-Feb-15 18:30N 48°57' W 125°33'0 0.0
2018-Feb-15 18:00N 48°57' W 125°33'1 1.6
2018-Feb-15 17:30N 48°56' W 125°32'0 0.0
2018-Feb-15 17:00N 48°56' W 125°32'0 0.0
2018-Feb-15 16:30N 48°56' W 125°32'0 0.0
2018-Feb-15 16:00N 48°56' W 125°32'0 0.0
2018-Feb-15 15:30N 48°56' W 125°32'0 0.0
2018-Feb-15 15:00N 48°56' W 125°32'0 0.0
2018-Feb-15 14:30N 48°56' W 125°32'0 0.0
2018-Feb-15 14:00N 48°56' W 125°32'0 0.0
2018-Feb-15 13:30N 48°56' W 125°32'0 0.0
2018-Feb-15 13:00N 48°56' W 125°32'0 0.0
2018-Feb-15 12:30N 48°56' W 125°32'0 0.0
2018-Feb-15 12:00N 48°56' W 125°32'0 0.0
2018-Feb-15 11:30N 48°56' W 125°32'0 0.0
2018-Feb-15 11:00N 48°56' W 125°32'0 0.0
2018-Feb-15 10:30N 48°56' W 125°32'0 0.0
2018-Feb-15 10:00N 48°56' W 125°32'0 0.0
2018-Feb-15 09:30N 48°56' W 125°32'0 0.0
2018-Feb-15 09:00N 48°56' W 125°32'0 0.0
2018-Feb-15 08:30N 48°56' W 125°32'0 0.0
2018-Feb-15 08:00N 48°56' W 125°32'0 0.0
2018-Feb-15 07:30N 48°56' W 125°32'0 0.0
2018-Feb-15 07:00N 48°56' W 125°32'0 0.0
2018-Feb-15 06:30N 48°56' W 125°32'0 0.0
2018-Feb-15 06:00N 48°56' W 125°32'0 0.0
2018-Feb-15 05:30N 48°56' W 125°32'0 0.0
2018-Feb-15 05:00N 48°56' W 125°32'0 0.0
2018-Feb-15 04:30N 48°56' W 125°32'0 0.0
2018-Feb-15 03:59N 48°56' W 125°32'0 0.0
2018-Feb-15 03:30N 48°56' W 125°32'0 0.0
2018-Feb-15 03:00N 48°56' W 125°32'0 0.0
2018-Feb-15 02:30N 48°56' W 125°32'0 0.0
2018-Feb-15 02:00N 48°56' W 125°32'0 0.0
2018-Feb-15 01:30N 48°56' W 125°32'0 0.2
2018-Feb-15 01:00N 48°56' W 125°32'0 0.0
2018-Feb-15 00:30N 48°56' W 125°32'0 0.0
2018-Feb-15 00:00N 48°56' W 125°32'0 0.0
2018-Feb-14 23:30N 48°56' W 125°32'0 0.0
2018-Feb-14 23:00N 48°56' W 125°32'0 0.0
2018-Feb-14 22:30N 48°56' W 125°32'0 0.0
2018-Feb-14 22:00N 48°56' W 125°32'0 0.0
2018-Feb-14 21:30N 48°56' W 125°32'0 0.0
2018-Feb-14 21:00N 48°56' W 125°32'0 0.0
2018-Feb-14 20:30N 48°56' W 125°32'0 0.0
2018-Feb-14 20:00N 48°56' W 125°32'0 0.0
2018-Feb-14 19:30N 48°56' W 125°32'0 0.0
2018-Feb-14 19:00N 48°56' W 125°32'0 0.0
2018-Feb-14 18:30N 48°56' W 125°32'0 0.0
2018-Feb-14 18:00N 48°56' W 125°32'0 0.0
2018-Feb-14 17:30N 48°56' W 125°32'0 0.0
2018-Feb-14 17:00N 48°56' W 125°32'0 0.0
2018-Feb-14 16:30N 48°56' W 125°32'0 0.0
2018-Feb-14 16:00N 48°56' W 125°32'0 0.0
2018-Feb-14 15:30N 48°56' W 125°32'0 0.0
2018-Feb-14 15:00N 48°56' W 125°32'0 0.0
2018-Feb-14 14:30N 48°56' W 125°32'0 0.0
2018-Feb-14 14:00N 48°56' W 125°32'0 0.2
2018-Feb-14 13:30N 48°56' W 125°32'2 4.4
2018-Feb-14 13:00N 48°55' W 125°35'4 8.6
2018-Feb-14 12:30N 48°57' W 125°40'4 8.2
2018-Feb-14 12:00N 48°59' W 125°46'4 8.6
2018-Feb-14 11:30N 49°01' W 125°52'4 8.7
2018-Feb-14 11:00N 49°04' W 125°57'4 8.8
2018-Feb-14 10:30N 49°06' W 126°03'4 8.5
2018-Feb-14 10:00N 49°08' W 126°09'4 8.3
2018-Feb-14 09:30N 49°10' W 126°14'4 8.0
2018-Feb-14 08:57N 49°12' W 126°20'  

Dump ship's entire track history